Time;durP1;ratioP1;P1;durP2;ratioP2;P2;SDS_P1;SDS_P2;PMS_P1;PMS_P2;Temp;Humidity;BMP_temperature;BMP_pressure;BME280_temperature;BME280_humidity;BME280_pressure;Samples;Min_cycle;Max_cycle;Signal;HPM_P1;HPM_P2
2022/08/27 00:02:14;;;;;;;1.23;1.20;;;23.60;59.40;;;;;;5042995;28;20448;-71
2022/08/27 00:04:41;;;;;;;1.33;1.27;;;23.60;60.50;;;;;;5045305;28;20431;-70
2022/08/27 00:07:07;;;;;;;1.20;1.20;;;23.50;61.10;;;;;;5047639;28;20431;-70
2022/08/27 00:09:34;;;;;;;1.23;1.20;;;23.50;60.50;;;;;;5050499;28;20462;-70
2022/08/27 00:11:59;;;;;;;1.23;1.20;;;23.60;61.10;;;;;;5051033;28;20443;-70
2022/08/27 00:14:26;;;;;;;1.30;1.20;;;23.60;61.20;;;;;;5071334;22;20526;-74
2022/08/27 00:16:53;;;;;;;1.30;1.20;;;23.60;60.00;;;;;;5047847;28;20551;-74
2022/08/27 00:19:20;;;;;;;1.30;1.20;;;23.60;59.60;;;;;;5038735;28;20430;-74
2022/08/27 00:21:45;;;;;;;1.30;1.20;;;23.60;60.50;;;;;;5031028;28;20401;-74
2022/08/27 00:24:11;;;;;;;1.20;1.10;;;23.80;59.80;;;;;;5034315;28;20813;-74
2022/08/27 00:26:37;;;;;;;1.20;1.20;;;23.60;60.10;;;;;;5042048;28;20183;-73
2022/08/27 00:29:04;;;;;;;1.20;1.20;;;23.50;60.90;;;;;;5051567;28;20636;-74
2022/08/27 00:31:29;;;;;;;1.30;1.30;;;23.50;61.10;;;;;;5050951;28;20502;-74
2022/08/27 00:33:55;;;;;;;1.30;1.20;;;23.60;60.30;;;;;;5040267;28;20869;-74
2022/08/27 00:36:21;;;;;;;1.20;1.20;;;23.60;61.20;;;;;;5039947;28;20186;-73
2022/08/27 00:38:48;;;;;;;1.20;1.10;;;23.50;61.10;;;;;;5043991;28;20453;-74
2022/08/27 00:41:13;;;;;;;1.20;1.20;;;23.60;60.50;;;;;;5038109;28;20270;-73
2022/08/27 00:43:48;;;;;;;1.20;1.10;;;23.70;60.70;;;;;;5042350;28;20885;-73
2022/08/27 00:46:40;;;;;;;1.27;1.20;;;23.70;61.20;;;;;;5053405;28;20206;-74
2022/08/27 00:49:30;;;;;;;1.20;1.10;;;23.70;59.60;;;;;;5036011;28;20442;-74
2022/08/27 00:52:01;;;;;;;1.30;1.20;;;23.70;59.70;;;;;;5045067;28;20435;-75
2022/08/27 00:54:28;;;;;;;1.30;1.20;;;23.70;60.70;;;;;;5038926;28;20431;-74
2022/08/27 00:56:54;;;;;;;1.23;1.20;;;23.70;60.20;;;;;;5055044;28;20409;-74
2022/08/27 00:59:24;;;;;;;1.20;1.10;;;23.70;61.20;;;;;;5039958;28;20439;-74
2022/08/27 01:04:36;;;;;;;1.33;1.30;;;23.70;61.10;;;;;;5026093;28;20460;-74
2022/08/27 01:07:02;;;;;;;1.20;1.20;;;23.60;61.70;;;;;;5039193;28;20488;-73
2022/08/27 01:09:28;;;;;;;1.20;1.20;;;23.60;62.10;;;;;;5041547;28;20475;-74
2022/08/27 01:11:57;;;;;;;1.20;1.17;;;23.60;61.20;;;;;;5037820;28;20448;-74
2022/08/27 01:14:23;;;;;;;1.20;1.10;;;23.70;60.50;;;;;;5043631;28;20535;-75
2022/08/27 01:16:53;;;;;;;1.20;1.10;;;23.70;60.60;;;;;;5042004;28;20440;-75
2022/08/27 01:19:31;;;;;;;1.20;1.17;;;23.60;61.20;;;;;;5045182;28;20482;-75
2022/08/27 01:22:43;;;;;;;1.27;1.20;;;23.70;61.20;;;;;;5040108;28;20955;-74
2022/08/27 01:25:12;;;;;;;1.30;1.20;;;23.70;59.40;;;;;;5030354;28;20463;-74
2022/08/27 01:27:39;;;;;;;1.23;1.20;;;23.60;61.20;;;;;;5044870;28;20993;-74
2022/08/27 01:30:07;;;;;;;1.20;1.10;;;23.50;61.10;;;;;;5046160;28;20475;-74
2022/08/27 01:32:33;;;;;;;1.20;1.20;;;23.60;61.30;;;;;;5043112;28;20516;-73
2022/08/27 01:35:01;;;;;;;1.23;1.20;;;23.60;61.20;;;;;;5033622;28;20456;-74
2022/08/27 01:37:27;;;;;;;1.30;1.20;;;23.60;61.20;;;;;;5031640;28;20437;-75
2022/08/27 01:39:55;;;;;;;1.20;1.20;;;23.60;60.30;;;;;;5041815;28;20482;-74
2022/08/27 01:42:36;;;;;;;1.20;1.20;;;23.60;60.30;;;;;;5046648;28;20510;-75
2022/08/27 01:45:07;;;;;;;1.20;1.20;;;23.60;60.20;;;;;;5029035;28;20454;-75
2022/08/27 01:47:34;;;;;;;1.20;1.20;;;23.50;60.90;;;;;;5022843;28;20979;-75
2022/08/27 01:50:00;;;;;;;1.20;1.20;;;23.40;62.70;;;;;;5013594;28;20485;-75
2022/08/27 01:52:29;;;;;;;1.20;1.13;;;23.40;62.30;;;;;;5013967;28;20773;-75
2022/08/27 01:54:55;;;;;;;1.20;1.17;;;23.50;61.80;;;;;;5030771;28;20464;-75
2022/08/27 01:57:22;;;;;;;1.20;1.10;;;23.50;61.70;;;;;;5035011;28;20437;-75
2022/08/27 01:59:48;;;;;;;1.30;1.20;;;23.40;63.00;;;;;;5045887;28;20511;-74
2022/08/27 02:02:16;;;;;;;1.30;1.30;;;23.40;62.40;;;;;;5053667;28;20847;-74
2022/08/27 02:04:43;;;;;;;1.20;1.10;;;23.30;63.20;;;;;;5040361;28;20522;-74
2022/08/27 02:07:09;;;;;;;1.20;1.17;;;23.30;63.60;;;;;;5042829;28;20800;-75
2022/08/27 02:09:35;;;;;;;1.20;1.13;;;23.40;62.90;;;;;;5045404;28;20456;-75
2022/08/27 02:12:01;;;;;;;1.20;1.10;;;23.40;62.30;;;;;;5053532;28;20404;-75
2022/08/27 02:14:27;;;;;;;1.20;1.20;;;23.40;61.60;;;;;;5047915;28;20728;-75
2022/08/27 02:16:54;;;;;;;1.20;1.20;;;23.40;61.80;;;;;;5039484;28;20422;-75
2022/08/27 02:19:20;;;;;;;1.20;1.20;;;23.50;61.10;;;;;;5052692;28;20420;-74
2022/08/27 02:21:48;;;;;;;1.30;1.30;;;23.50;61.10;;;;;;5053709;28;20445;-74
2022/08/27 02:24:13;;;;;;;1.20;1.10;;;23.40;61.40;;;;;;5051430;28;21119;-74
2022/08/27 02:26:39;;;;;;;1.20;1.20;;;23.30;61.70;;;;;;5040864;28;20424;-75
2022/08/27 02:29:06;;;;;;;1.20;1.13;;;23.40;61.60;;;;;;5050711;28;20524;-74
2022/08/27 02:31:32;;;;;;;1.20;1.13;;;23.40;61.10;;;;;;5053067;28;20202;-75
2022/08/27 02:33:57;;;;;;;1.20;1.10;;;23.40;61.80;;;;;;5048081;28;20431;-74
2022/08/27 02:36:23;;;;;;;1.20;1.10;;;23.30;62.00;;;;;;5035095;28;20845;-74
2022/08/27 02:38:49;;;;;;;1.23;1.20;;;23.30;61.90;;;;;;5038429;28;20182;-74
2022/08/27 02:41:16;;;;;;;1.20;1.10;;;23.20;61.40;;;;;;5040145;28;20433;-74
2022/08/27 02:43:42;;;;;;;1.20;1.20;;;23.30;61.80;;;;;;5046846;28;20425;-74
2022/08/27 02:46:10;;;;;;;1.20;1.20;;;23.30;60.90;;;;;;5041443;28;21033;-73
2022/08/27 02:48:40;;;;;;;1005.37;43.27;;;23.20;61.90;;;;;;5034667;28;20436;-74
2022/08/27 02:51:07;;;;;;;160.33;4.70;;;23.20;62.60;;;;;;5032812;28;20976;-74
2022/08/27 02:53:34;;;;;;;8.40;1.20;;;23.30;62.20;;;;;;5032815;28;20497;-73
2022/08/27 02:56:00;;;;;;;3.97;1.10;;;23.30;61.90;;;;;;5038441;28;20451;-74
2022/08/27 02:58:25;;;;;;;393.87;19.80;;;23.30;62.40;;;;;;5040130;28;20995;-74
2022/08/27 03:00:51;;;;;;;98.53;4.70;;;23.30;61.90;;;;;;5032211;28;20183;-74
2022/08/27 03:03:17;;;;;;;2.40;1.20;;;23.40;61.00;;;;;;5032648;28;20546;-73
2022/08/27 03:05:42;;;;;;;725.33;46.23;;;23.40;61.50;;;;;;5032651;28;20228;-74
2022/08/27 03:08:08;;;;;;;137.23;11.00;;;23.20;61.10;;;;;;5034925;28;20184;-74
2022/08/27 03:10:34;;;;;;;1473.73;762.43;;;23.20;62.70;;;;;;5039883;28;20227;-74
2022/08/27 03:13:00;;;;;;;123.70;28.27;;;23.30;61.60;;;;;;5039415;28;20929;-75
2022/08/27 03:15:26;;;;;;;1999.90;999.90;;;23.30;60.90;;;;;;5012514;28;20199;-75
2022/08/27 03:20:41;;;;;;;1999.90;999.90;;;23.30;61.40;;;;;;5040858;28;20947;-75
2022/08/27 03:23:08;;;;;;;1999.90;999.90;;;23.40;62.50;;;;;;5032272;28;20418;-75
2022/08/27 03:25:35;;;;;;;1999.90;999.90;;;23.50;61.10;;;;;;5032548;28;20453;-74
2022/08/27 03:28:01;;;;;;;1999.90;999.90;;;23.60;61.20;;;;;;5039770;28;20424;-74
2022/08/27 03:30:27;;;;;;;1999.90;999.90;;;23.60;61.20;;;;;;5040229;28;20523;-75
2022/08/27 03:32:53;;;;;;;1999.90;999.90;;;23.70;60.50;;;;;;5039248;28;20516;-75
2022/08/27 03:35:20;;;;;;;8.77;1.20;;;23.60;60.80;;;;;;5046504;28;20210;-74
2022/08/27 03:37:46;;;;;;;8.63;1.27;;;23.60;60.80;;;;;;5046817;28;20409;-75
2022/08/27 03:40:13;;;;;;;7.90;1.10;;;23.60;61.20;;;;;;5041413;28;20849;-73
2022/08/27 03:42:39;;;;;;;252.43;57.97;;;23.60;61.20;;;;;;5038030;28;20678;-74
2022/08/27 03:45:07;;;;;;;1999.90;999.90;;;23.60;60.50;;;;;;5022795;28;20850;-74
2022/08/27 03:47:33;;;;;;;1999.90;999.90;;;23.10;60.00;;;;;;5012482;28;20948;-73
2022/08/27 03:49:59;;;;;;;1999.90;999.90;;;23.00;61.20;;;;;;5016955;28;20473;-74
2022/08/27 03:52:26;;;;;;;1999.90;999.90;;;23.40;60.40;;;;;;5036109;28;20434;-74
2022/08/27 03:54:52;;;;;;;1999.90;999.90;;;23.40;61.00;;;;;;5043199;28;20427;-74
2022/08/27 03:57:17;;;;;;;1999.90;999.90;;;23.40;61.00;;;;;;5051879;28;20468;-73
2022/08/27 03:59:43;;;;;;;1999.90;999.90;;;23.40;61.00;;;;;;5049939;28;20412;-73
2022/08/27 04:02:09;;;;;;;1999.90;999.90;;;23.40;61.00;;;;;;5038607;28;20569;-74
2022/08/27 04:04:35;;;;;;;1999.90;999.90;;;23.40;61.80;;;;;;5031210;28;20199;-74
2022/08/27 04:07:00;;;;;;;1999.90;999.90;;;23.50;61.10;;;;;;5038898;28;20658;-73
2022/08/27 04:09:26;;;;;;;1999.90;999.90;;;23.50;61.10;;;;;;5043245;28;20186;-74
2022/08/27 04:11:52;;;;;;;1281.97;238.47;;;23.80;59.80;;;;;;5038313;28;20176;-74
2022/08/27 04:14:18;;;;;;;71.47;1.63;;;23.60;59.80;;;;;;5044128;28;20212;-74
2022/08/27 04:16:44;;;;;;;149.50;32.87;;;23.70;60.30;;;;;;5051603;28;20160;-74
2022/08/27 04:19:11;;;;;;;73.77;1.47;;;23.80;57.80;;;;;;5040037;28;20429;-74
2022/08/27 04:21:37;;;;;;;78.90;1.80;;;23.60;59.80;;;;;;5038428;28;20556;-75
2022/08/27 04:24:03;;;;;;;165.80;22.17;;;23.60;58.80;;;;;;5030891;28;20513;-73
2022/08/27 04:26:28;;;;;;;20.40;1.30;;;23.90;56.30;;;;;;5043019;28;20172;-74
2022/08/27 04:28:56;;;;;;;645.37;173.83;;;23.60;59.20;;;;;;5044700;28;20217;-74
2022/08/27 04:31:22;;;;;;;174.73;21.73;;;25.20;62.10;;;;;;5042302;28;20205;-74
2022/08/27 04:33:48;;;;;;;1999.90;999.90;;;23.50;60.80;;;;;;5041864;28;20513;-75
2022/08/27 04:36:14;;;;;;;1999.90;999.90;;;23.50;61.10;;;;;;5032432;28;20750;-75
2022/08/27 04:38:39;;;;;;;1999.90;999.90;;;23.50;61.10;;;;;;5036518;28;20302;-75
2022/08/27 04:41:21;;;;;;;116.67;25.17;;;23.60;59.70;;;;;;5039878;28;20427;-74
2022/08/27 04:43:57;;;;;;;52.30;1.50;;;23.60;60.00;;;;;;5047433;28;20172;-74
2022/08/27 04:46:26;;;;;;;61.00;1.50;;;23.60;60.70;;;;;;5032743;28;20437;-74
2022/08/27 04:48:52;;;;;;;90.17;26.57;;;23.60;60.30;;;;;;5037941;28;20452;-75
2022/08/27 04:51:19;;;;;;;50.40;1.43;;;23.60;59.90;;;;;;5041108;28;20527;-74
2022/08/27 04:53:44;;;;;;;65.67;1.60;;;23.80;59.80;;;;;;5040593;28;20454;-74
2022/08/27 04:56:16;;;;;;;188.57;28.67;;;23.60;58.80;;;;;;5031090;28;20446;-74
2022/08/27 04:58:42;;;;;;;98.60;2.30;;;23.70;59.70;;;;;;5031149;28;20174;-74
2022/08/27 05:01:08;;;;;;;1999.90;999.90;;;23.60;60.40;;;;;;5037636;28;20460;-74
2022/08/27 05:03:34;;;;;;;99.83;4.43;;;23.60;59.20;;;;;;5043696;28;20422;-74
2022/08/27 05:06:03;;;;;;;240.57;39.87;;;23.60;60.80;;;;;;5039904;28;20457;-74
2022/08/27 05:08:30;;;;;;;76.27;1.60;;;23.50;61.10;;;;;;5030984;28;20179;-74
2022/08/27 05:10:56;;;;;;;74.07;1.60;;;23.60;61.20;;;;;;5030319;28;20474;-73
2022/08/27 05:13:23;;;;;;;134.23;6.57;;;23.60;60.80;;;;;;5038638;28;20474;-72
2022/08/27 05:15:49;;;;;;;111.80;2.87;;;23.70;60.40;;;;;;5037385;28;20212;-74
2022/08/27 05:18:15;;;;;;;1999.90;999.90;;;23.60;60.20;;;;;;5049409;28;20917;-74
2022/08/27 05:20:44;;;;;;;1999.90;999.90;;;23.70;60.30;;;;;;5038197;28;20438;-74
2022/08/27 05:23:10;;;;;;;116.57;3.33;;;23.80;60.50;;;;;;5040231;28;20420;-74
2022/08/27 05:25:45;;;;;;;118.70;4.37;;;23.70;60.90;;;;;;5054241;28;20770;-74
2022/08/27 05:28:12;;;;;;;191.20;15.50;;;23.70;61.20;;;;;;5036591;28;20426;-74
2022/08/27 05:30:42;;;;;;;103.67;2.40;;;23.70;61.90;;;;;;5042038;28;20984;-74
2022/08/27 05:33:09;;;;;;;90.10;2.00;;;23.80;61.40;;;;;;5041338;28;20489;-74
2022/08/27 05:35:42;;;;;;;1.30;1.10;;;23.80;61.40;;;;;;5046872;28;20433;-73
2022/08/27 05:38:08;;;;;;;1.30;1.10;;;23.80;61.40;;;;;;5039452;28;20419;-74
2022/08/27 05:40:34;;;;;;;1.30;1.10;;;23.80;61.40;;;;;;5029368;28;20426;-74
2022/08/27 05:43:00;;;;;;;1.30;1.00;;;23.80;61.40;;;;;;5033319;28;20419;-74
2022/08/27 05:45:25;;;;;;;1.30;1.20;;;23.80;60.60;;;;;;5037505;28;20434;-74
2022/08/27 05:47:51;;;;;;;1.30;1.00;;;23.90;60.60;;;;;;5040426;28;20199;-74
2022/08/27 05:50:17;;;;;;;1.30;1.10;;;23.90;57.90;;;;;;5038874;28;20217;-74
2022/08/27 05:52:42;;;;;;;1.30;1.10;;;23.90;58.10;;;;;;5020283;28;20261;-74
2022/08/27 05:55:08;;;;;;;1.30;1.10;;;24.00;56.80;;;;;;5042114;28;20435;-74
2022/08/27 05:57:34;;;;;;;1.30;1.17;;;24.00;56.80;;;;;;5034121;28;20165;-74
2022/08/27 06:02:44;;;;;;;1.30;1.10;;;24.00;57.90;;;;;;5032638;28;20280;-74
2022/08/27 06:05:10;;;;;;;266.87;56.47;;;24.10;55.80;;;;;;5043235;28;20431;-74
2022/08/27 06:07:36;;;;;;;1.30;1.20;;;24.10;54.90;;;;;;5053869;28;20403;-74
2022/08/27 06:10:04;;;;;;;1.20;1.00;;;24.20;55.70;;;;;;5044310;28;20200;-74
2022/08/27 06:12:29;;;;;;;1.30;1.10;;;24.30;54.80;;;;;;5033396;28;20224;-74
2022/08/27 06:14:56;;;;;;;1.30;1.20;;;24.30;52.30;;;;;;5054120;22;20475;-73
2022/08/27 06:17:21;;;;;;;1.27;1.10;;;24.30;52.20;;;;;;5045150;28;20184;-70
2022/08/27 06:19:47;;;;;;;1.20;1.10;;;24.40;52.70;;;;;;5053298;28;20467;-68
2022/08/27 06:22:13;;;;;;;1.23;1.10;;;24.40;51.00;;;;;;5033080;28;20189;-68
2022/08/27 06:24:40;;;;;;;1.30;1.10;;;24.40;51.90;;;;;;5049548;28;20180;-68
2022/08/27 06:27:12;;;;;;;1.30;1.10;;;24.30;52.30;;;;;;5064968;28;20402;-68
2022/08/27 06:29:39;;;;;;;1.30;1.10;;;24.30;52.50;;;;;;5073638;28;20450;-70
2022/08/27 06:32:04;;;;;;;1.27;1.20;;;24.30;54.30;;;;;;5046502;28;20442;-68
2022/08/27 06:34:30;;;;;;;1.23;1.10;;;24.40;54.00;;;;;;5060113;28;20424;-69
2022/08/27 06:36:56;;;;;;;1.30;1.20;;;24.30;53.90;;;;;;5060284;28;20196;-70
2022/08/27 06:39:21;;;;;;;1.20;1.10;;;24.30;53.30;;;;;;5064376;28;20550;-68
2022/08/27 06:41:49;;;;;;;1.30;1.13;;;24.50;50.80;;;;;;5059659;28;20186;-69
2022/08/27 06:44:14;;;;;;;1.30;1.20;;;24.30;51.00;;;;;;5033133;28;20172;-69
2022/08/27 06:46:41;;;;;;;1.20;1.10;;;24.40;49.50;;;;;;5056673;28;20450;-73
2022/08/27 06:49:07;;;;;;;1.30;1.10;;;24.60;48.10;;;;;;5051382;28;20178;-72
2022/08/27 06:51:34;;;;;;;1.27;1.10;;;24.70;47.80;;;;;;5060772;28;20479;-71
2022/08/27 06:54:04;;;;;;;1.30;1.10;;;24.50;52.10;;;;;;5059024;28;20463;-71
2022/08/27 06:56:30;;;;;;;1.30;1.00;;;24.60;51.90;;;;;;5048809;28;20554;-71
2022/08/27 06:59:00;;;;;;;1.30;1.10;;;24.60;52.00;;;;;;5057320;28;20490;-71
2022/08/27 07:01:29;;;;;;;1.30;1.10;;;24.50;49.80;;;;;;5055556;28;20850;-71
2022/08/27 07:03:57;;;;;;;1.23;1.10;;;24.40;50.20;;;;;;5063862;28;20487;-71
2022/08/27 07:06:24;;;;;;;1.27;1.10;;;24.50;51.40;;;;;;5059911;28;20462;-73
2022/08/27 07:08:50;;;;;;;1.30;1.10;;;24.60;53.50;;;;;;5056101;28;20427;-71
2022/08/27 07:11:16;;;;;;;1.23;1.10;;;24.20;51.00;;;;;;5055746;28;20478;-71
2022/08/27 07:13:44;;;;;;;1.30;1.10;;;24.00;49.30;;;;;;5052380;28;20215;-71
2022/08/27 07:16:12;;;;;;;1.30;1.10;;;24.10;49.50;;;;;;5052408;28;20208;-71
2022/08/27 07:18:39;;;;;;;1.30;1.10;;;24.30;49.00;;;;;;5051863;28;20907;-71
2022/08/27 07:21:06;;;;;;;1.30;1.10;;;24.30;48.90;;;;;;5059092;28;20466;-73
2022/08/27 07:23:34;;;;;;;1.50;1.20;;;24.60;49.30;;;;;;5040930;28;20416;-71
2022/08/27 07:26:00;;;;;;;1.30;1.10;;;24.80;49.80;;;;;;5048978;28;20591;-71
2022/08/27 07:28:26;;;;;;;1.30;1.10;;;24.80;48.10;;;;;;5055276;28;20432;-74
2022/08/27 07:30:52;;;;;;;1.30;1.13;;;24.70;48.40;;;;;;5059698;28;20467;-68
2022/08/27 07:33:18;;;;;;;1.97;1.10;;;24.70;47.40;;;;;;5070513;28;20815;-70
2022/08/27 07:35:45;;;;;;;1999.90;999.90;;;24.80;47.60;;;;;;5069404;28;20195;-68
2022/08/27 07:38:11;;;;;;;1999.90;999.90;;;24.90;48.10;;;;;;5063089;28;20831;-68
2022/08/27 07:40:37;;;;;;;1999.90;999.90;;;25.10;47.10;;;;;;5062946;28;20463;-67
2022/08/27 07:45:54;;;;;;;1999.90;999.90;;;25.10;48.60;;;;;;5057496;28;20563;-68
2022/08/27 07:48:22;;;;;;;1999.90;999.90;;;24.90;48.60;;;;;;5065891;28;20808;-68
2022/08/27 07:50:48;;;;;;;1999.90;999.90;;;24.10;48.50;;;;;;5063222;28;20449;-70
2022/08/27 07:53:13;;;;;;;1999.90;999.90;;;23.50;52.20;;;;;;5071620;28;20553;-67
2022/08/27 07:55:39;;;;;;;1999.90;999.90;;;23.20;52.80;;;;;;5063895;28;20201;-67
2022/08/27 07:58:05;;;;;;;1999.90;999.90;;;23.70;56.10;;;;;;5057104;28;20255;-67
2022/08/27 08:00:32;;;;;;;1999.90;999.90;;;24.10;55.90;;;;;;5051685;28;20203;-68
2022/08/27 08:02:58;;;;;;;1999.90;999.90;;;24.20;50.70;;;;;;5051282;28;20206;-68
2022/08/27 08:05:23;;;;;;;1999.90;999.90;;;24.20;54.30;;;;;;5051251;28;20433;-67
2022/08/27 08:07:50;;;;;;;1999.90;999.90;;;23.90;52.80;;;;;;5058511;28;20428;-67
2022/08/27 08:10:17;;;;;;;1999.90;999.90;;;23.20;55.70;;;;;;5038542;28;20201;-68
2022/08/27 08:12:42;;;;;;;1999.90;999.90;;;23.40;58.90;;;;;;5054977;28;20463;-69
2022/08/27 08:15:10;;;;;;;1999.90;999.90;;;24.10;56.50;;;;;;5068641;28;20958;-71
2022/08/27 08:17:37;;;;;;;1999.90;999.90;;;24.40;51.60;;;;;;5060559;28;20178;-68
2022/08/27 08:20:05;;;;;;;1999.90;999.90;;;24.00;51.50;;;;;;5063280;28;20406;-68
2022/08/27 08:22:31;;;;;;;1999.90;999.90;;;23.80;52.20;;;;;;5059483;28;20493;-68
2022/08/27 08:24:56;;;;;;;1999.90;999.90;;;23.70;54.50;;;;;;5043740;28;20963;-72
2022/08/27 08:27:23;;;;;;;283.43;103.17;;;23.90;53.50;;;;;;5061472;28;20185;-68
2022/08/27 08:29:49;;;;;;;1999.90;999.90;;;24.00;51.60;;;;;;5040379;28;20658;-68
2022/08/27 08:32:16;;;;;;;250.33;66.50;;;23.80;52.10;;;;;;5056121;28;20439;-68
2022/08/27 08:34:42;;;;;;;1999.90;999.90;;;23.70;52.80;;;;;;5055790;28;20423;-68
2022/08/27 08:37:07;;;;;;;1999.90;999.90;;;23.70;56.00;;;;;;5052474;28;20904;-69
2022/08/27 08:39:35;;;;;;;1999.90;999.90;;;24.30;51.70;;;;;;5043030;28;20426;-71
2022/08/27 08:42:04;;;;;;;1999.90;999.90;;;24.30;50.20;;;;;;5034791;28;20182;-68
2022/08/27 08:44:38;;;;;;;1999.90;999.90;;;24.10;51.70;;;;;;5052605;28;20485;-67
2022/08/27 08:47:13;;;;;;;1999.90;999.90;;;24.20;49.60;;;;;;5059299;28;20422;-68
2022/08/27 08:49:45;;;;;;;10.60;1.93;;;24.10;52.20;;;;;;5060427;28;20440;-69
2022/08/27 08:52:19;;;;;;;1.30;1.20;;;24.10;52.90;;;;;;5052492;28;20471;-68
2022/08/27 08:54:46;;;;;;;92.70;19.47;;;24.30;50.30;;;;;;5050923;28;20497;-68
2022/08/27 08:57:33;;;;;;;1.20;1.10;;;24.30;50.20;;;;;;5051147;28;20402;-70
2022/08/27 09:00:05;;;;;;;1.50;1.10;;;24.70;54.30;;;;;;5059948;28;20435;-68
2022/08/27 09:02:31;;;;;;;1.30;1.10;;;24.90;53.20;;;;;;5058884;28;20443;-68
2022/08/27 09:05:02;;;;;;;628.87;21.80;;;25.00;53.10;;;;;;5058595;28;20445;-71
2022/08/27 09:07:56;;;;;;;1.20;1.10;;;25.00;51.20;;;;;;5054983;28;20523;-68
2022/08/27 09:10:33;;;;;;;1.30;1.10;;;24.70;50.10;;;;;;5060238;28;20494;-70
2022/08/27 09:13:03;;;;;;;747.97;75.80;;;24.40;51.00;;;;;;5068569;28;20439;-68
2022/08/27 09:15:35;;;;;;;111.83;5.57;;;24.70;52.90;;;;;;5058845;28;20467;-69
2022/08/27 09:18:12;;;;;;;294.10;14.97;;;24.80;52.00;;;;;;5061712;28;20440;-71
2022/08/27 09:20:40;;;;;;;1185.27;201.90;;;24.80;53.10;;;;;;5066292;28;20421;-68
2022/08/27 09:23:29;;;;;;;30.43;1.30;;;25.10;51.50;;;;;;5051607;28;20500;-67
2022/08/27 09:25:55;;;;;;;100.97;2.20;;;25.00;52.60;;;;;;5053692;28;20547;-68
2022/08/27 09:31:13;;;;;;;98.47;1.90;;;24.70;51.30;;;;;;5053040;28;20582;-69
2022/08/27 09:33:39;;;;;;;92.40;1.70;;;24.60;55.00;;;;;;5053948;28;20543;-70
2022/08/27 09:36:11;;;;;;;96.97;1.80;;;24.70;52.30;;;;;;5052036;28;21028;-68
2022/08/27 09:38:40;;;;;;;1.20;1.10;;;24.30;55.50;;;;;;5053737;28;20195;-68
2022/08/27 09:41:15;;;;;;;1.30;1.10;;;23.50;60.80;;;;;;5052951;28;20427;-68
2022/08/27 09:43:42;;;;;;;1.30;1.10;;;22.80;66.80;;;;;;5058868;28;20487;-70
2022/08/27 09:46:27;;;;;;;1.30;1.07;;;22.20;74.00;;;;;;5054100;28;21007;-71
2022/08/27 09:48:53;;;;;;;1.27;1.10;;;22.40;79.10;;;;;;5059622;28;20980;-69
2022/08/27 09:51:21;;;;;;;1.30;1.10;;;23.00;75.70;;;;;;5056765;28;20501;-69
2022/08/27 09:54:02;;;;;;;1.20;1.03;;;23.50;69.70;;;;;;5061607;28;20422;-72
2022/08/27 09:56:33;;;;;;;1.20;1.10;;;23.80;68.10;;;;;;5052935;28;20452;-72
2022/08/27 09:59:07;;;;;;;1.20;1.10;;;24.00;66.50;;;;;;5061845;28;20446;-68
2022/08/27 10:01:37;;;;;;;1.30;1.20;;;24.10;65.60;;;;;;5040966;28;20647;-68
2022/08/27 10:04:15;;;;;;;1.20;1.10;;;24.10;65.50;;;;;;5046330;28;20457;-69
2022/08/27 10:06:46;;;;;;;1.27;1.20;;;24.30;61.40;;;;;;5057033;28;20863;-69
2022/08/27 10:09:17;;;;;;;1.20;1.10;;;24.40;58.90;;;;;;5061441;28;20415;-69
2022/08/27 10:12:12;;;;;;;1.20;1.10;;;24.30;60.40;;;;;;5055314;28;20491;-69
2022/08/27 10:14:51;;;;;;;1.20;1.10;;;24.40;61.90;;;;;;5048217;28;20932;-69
2022/08/27 10:17:43;;;;;;;1.20;1.10;;;24.40;59.80;;;;;;5061731;28;20442;-69
2022/08/27 10:20:20;;;;;;;1.20;1.10;;;24.40;62.50;;;;;;5054108;28;20780;-70
2022/08/27 10:23:04;;;;;;;409.67;12.23;;;24.30;61.80;;;;;;5047753;28;20457;-70
2022/08/27 10:25:45;;;;;;;1.27;1.20;;;24.10;64.70;;;;;;5052796;28;20860;-70
2022/08/27 10:28:28;;;;;;;1.20;1.00;;;24.10;66.30;;;;;;5052461;28;20495;-69
2022/08/27 10:31:02;;;;;;;1.20;1.10;;;24.20;66.80;;;;;;5060420;28;20558;-70
2022/08/27 10:33:35;;;;;;;1.20;1.13;;;24.10;67.90;;;;;;5049488;28;20441;-70
2022/08/27 10:36:17;;;;;;;1.20;1.10;;;24.00;67.80;;;;;;5051462;28;20900;-69
2022/08/27 10:38:52;;;;;;;1.20;1.10;;;23.90;70.60;;;;;;5052998;28;20981;-69
2022/08/27 10:42:09;;;;;;;1.20;1.10;;;24.00;68.70;;;;;;5048069;28;20445;-71
2022/08/27 10:44:59;;;;;;;1.30;1.20;;;24.20;66.60;;;;;;5023663;28;20421;-69
2022/08/27 10:47:46;;;;;;;1.20;1.20;;;24.20;66.50;;;;;;5051949;28;20996;-69
2022/08/27 10:50:23;;;;;;;1.20;1.10;;;24.20;66.90;;;;;;5065777;28;20928;-72
2022/08/27 10:53:25;;;;;;;1.20;1.10;;;24.10;68.10;;;;;;5052216;28;20422;-69
2022/08/27 10:56:00;;;;;;;1.20;1.10;;;24.00;67.10;;;;;;5063180;28;20455;-70
2022/08/27 10:58:52;;;;;;;1.20;1.10;;;24.00;67.30;;;;;;5047986;28;20839;-69
2022/08/27 11:01:47;;;;;;;1.23;1.10;;;23.80;67.40;;;;;;5058691;28;20512;-69
2022/08/27 11:04:30;;;;;;;1.20;1.20;;;23.30;71.00;;;;;;5059446;28;20433;-69
2022/08/27 11:07:05;;;;;;;1.23;1.20;;;22.60;79.40;;;;;;5064279;28;20432;-70
2022/08/27 11:09:53;;;;;;;1.30;1.30;;;22.80;80.80;;;;;;5061006;28;20923;-72
2022/08/27 11:12:35;;;;;;;1.20;1.10;;;23.10;76.00;;;;;;5061114;28;20407;-69
2022/08/27 11:15:15;;;;;;;1.20;1.10;;;22.90;76.40;;;;;;5072366;28;20429;-69
2022/08/27 11:18:04;;;;;;;1.50;1.40;;;23.40;72.80;;;;;;5072303;28;20771;-69
2022/08/27 11:20:41;;;;;;;1.20;1.20;;;23.60;70.20;;;;;;5072448;28;20943;-70
2022/08/27 11:23:18;;;;;;;1.20;1.10;;;23.60;71.20;;;;;;5062892;28;20454;-70
2022/08/27 11:25:55;;;;;;;1.20;1.10;;;23.80;68.30;;;;;;5032456;28;20430;-72
2022/08/27 11:28:36;;;;;;;1.20;1.10;;;23.70;67.70;;;;;;5032241;28;20778;-69
2022/08/27 11:31:10;;;;;;;1.20;1.10;;;23.60;68.50;;;;;;5031853;28;20831;-69
2022/08/27 11:34:07;;;;;;;1.20;1.20;;;23.80;66.00;;;;;;5033458;28;20428;-72
2022/08/27 11:36:41;;;;;;;1.20;1.20;;;24.00;64.50;;;;;;5051820;28;20446;-69
2022/08/27 11:39:29;;;;;;;1.20;1.20;;;24.00;66.70;;;;;;5052094;28;20888;-70
2022/08/27 11:41:57;;;;;;;1.20;1.00;;;23.90;68.30;;;;;;5051525;28;20472;-70
2022/08/27 11:44:25;;;;;;;1.20;1.20;;;23.90;70.00;;;;;;5050081;28;20445;-69
2022/08/27 11:47:06;;;;;;;1.20;1.10;;;23.90;68.30;;;;;;5043143;28;20485;-69
2022/08/27 11:49:40;;;;;;;1.20;1.00;;;23.90;68.10;;;;;;5031892;28;20418;-69
2022/08/27 11:52:07;;;;;;;1.20;1.10;;;23.80;69.20;;;;;;5031462;28;20785;-69
2022/08/27 11:54:46;;;;;;;1.20;1.10;;;23.90;68.30;;;;;;5031817;28;20476;-70
2022/08/27 11:57:29;;;;;;;1.20;1.10;;;24.00;68.70;;;;;;5035907;28;20775;-69
2022/08/27 11:59:56;;;;;;;1.20;1.10;;;24.10;69.50;;;;;;5051789;28;20896;-69
2022/08/27 12:02:28;;;;;;;1.20;1.10;;;24.00;67.40;;;;;;5050948;28;20917;-70
2022/08/27 12:05:18;;;;;;;1.20;1.10;;;24.10;68.30;;;;;;5050949;28;20473;-70
2022/08/27 12:07:47;;;;;;;1.20;1.10;;;24.10;70.30;;;;;;5047712;28;20491;-69
2022/08/27 12:10:18;;;;;;;1.20;1.10;;;24.30;68.20;;;;;;5058903;28;20557;-72
2022/08/27 12:12:51;;;;;;;1.20;1.07;;;24.40;67.40;;;;;;5055599;28;20435;-69
2022/08/27 12:15:47;;;;;;;1.20;1.10;;;24.40;66.50;;;;;;5059116;28;20552;-69
2022/08/27 12:18:34;;;;;;;1.20;1.10;;;24.40;66.50;;;;;;5050580;28;20453;-69
2022/08/27 12:21:29;;;;;;;1.20;1.10;;;24.50;66.70;;;;;;5053758;28;20435;-69
2022/08/27 12:24:29;;;;;;;1.20;1.10;;;24.60;65.50;;;;;;5056862;28;20433;-69
2022/08/27 12:27:11;;;;;;;1.20;1.10;;;24.60;67.40;;;;;;5049807;28;20478;-69
2022/08/27 12:29:52;;;;;;;1.20;1.00;;;24.60;67.80;;;;;;5049359;28;20491;-69
2022/08/27 12:32:36;;;;;;;1.50;1.40;;;24.60;67.00;;;;;;5058204;28;21826;-69
2022/08/27 12:35:01;;;;;;;1.20;1.10;;;24.70;65.40;;;;;;5059957;28;20459;-70
2022/08/27 12:37:33;;;;;;;1.20;1.10;;;24.90;65.60;;;;;;5048392;28;20970;-69
2022/08/27 12:40:07;;;;;;;1.20;1.20;;;24.80;63.50;;;;;;5056547;28;20280;-69
2022/08/27 12:42:33;;;;;;;1.20;1.10;;;24.70;65.40;;;;;;5054988;28;20433;-70
2022/08/27 12:44:59;;;;;;;1.20;1.10;;;24.80;65.50;;;;;;5049558;28;20526;-70
2022/08/27 12:47:25;;;;;;;1.20;1.10;;;24.60;63.60;;;;;;5120806;22;21914;-72
2022/08/27 12:49:59;;;;;;;1.20;1.10;;;24.60;64.40;;;;;;5042965;28;20235;-72
2022/08/27 12:52:46;;;;;;;1.20;1.00;;;24.60;63.60;;;;;;5049408;28;20472;-72
2022/08/27 12:55:29;;;;;;;1.20;1.10;;;24.70;64.30;;;;;;5068945;28;20446;-72
2022/08/27 12:58:12;;;;;;;1.20;1.10;;;24.70;62.20;;;;;;5062167;28;20496;-72
2022/08/27 13:01:08;;;;;;;1.20;1.10;;;24.60;66.00;;;;;;5046681;28;20509;-72
2022/08/27 13:03:44;;;;;;;1.20;1.10;;;24.70;65.60;;;;;;5046539;28;20768;-72
2022/08/27 13:06:17;;;;;;;1.20;1.03;;;24.80;63.20;;;;;;5055053;28;20423;-71
2022/08/27 13:08:42;;;;;;;1.20;1.10;;;24.60;62.50;;;;;;5053298;28;20457;-72